sensor_id;sensor_type;location;lat;lon;timestamp;P1;durP1;ratioP1;P2;durP2;ratioP2
49610;SDS011;35515;48.766;9.176;2022-12-24T00:00:10;5.65;;;2.05;;
49610;SDS011;35515;48.766;9.176;2022-12-24T00:02:37;8.57;;;2.88;;
49610;SDS011;35515;48.766;9.176;2022-12-24T00:05:04;7.15;;;2.65;;
49610;SDS011;35515;48.766;9.176;2022-12-24T00:07:31;6.72;;;2.47;;
49610;SDS011;35515;48.766;9.176;2022-12-24T00:09:59;3.65;;;2.20;;
49610;SDS011;35515;48.766;9.176;2022-12-24T00:12:25;3.75;;;1.60;;
49610;SDS011;35515;48.766;9.176;2022-12-24T00:14:52;3.67;;;1.40;;
49610;SDS011;35515;48.766;9.176;2022-12-24T00:17:18;4.95;;;1.70;;
49610;SDS011;35515;48.766;9.176;2022-12-24T00:19:45;6.68;;;1.85;;
49610;SDS011;35515;48.766;9.176;2022-12-24T00:22:11;6.50;;;2.13;;
49610;SDS011;35515;48.766;9.176;2022-12-24T00:24:38;4.95;;;2.45;;
49610;SDS011;35515;48.766;9.176;2022-12-24T00:27:06;6.00;;;2.50;;
49610;SDS011;35515;48.766;9.176;2022-12-24T00:29:32;4.22;;;1.75;;
49610;SDS011;35515;48.766;9.176;2022-12-24T00:31:59;4.72;;;2.00;;
49610;SDS011;35515;48.766;9.176;2022-12-24T00:34:26;4.43;;;1.90;;
49610;SDS011;35515;48.766;9.176;2022-12-24T00:36:52;4.38;;;1.60;;
49610;SDS011;35515;48.766;9.176;2022-12-24T00:39:19;4.82;;;1.80;;
49610;SDS011;35515;48.766;9.176;2022-12-24T00:41:45;4.63;;;1.63;;
49610;SDS011;35515;48.766;9.176;2022-12-24T00:44:13;3.42;;;1.42;;
49610;SDS011;35515;48.766;9.176;2022-12-24T00:46:40;4.05;;;1.40;;
49610;SDS011;35515;48.766;9.176;2022-12-24T00:49:07;8.15;;;2.00;;
49610;SDS011;35515;48.766;9.176;2022-12-24T00:51:34;4.15;;;1.67;;
49610;SDS011;35515;48.766;9.176;2022-12-24T00:54:01;6.38;;;1.90;;
49610;SDS011;35515;48.766;9.176;2022-12-24T00:56:28;4.10;;;1.50;;
49610;SDS011;35515;48.766;9.176;2022-12-24T00:58:55;6.25;;;2.00;;
49610;SDS011;35515;48.766;9.176;2022-12-24T01:01:23;4.65;;;1.63;;
49610;SDS011;35515;48.766;9.176;2022-12-24T01:03:50;4.28;;;1.98;;
49610;SDS011;35515;48.766;9.176;2022-12-24T01:06:37;5.82;;;1.88;;
49610;SDS011;35515;48.766;9.176;2022-12-24T01:09:02;7.22;;;2.20;;
49610;SDS011;35515;48.766;9.176;2022-12-24T01:11:29;3.90;;;1.88;;
49610;SDS011;35515;48.766;9.176;2022-12-24T01:13:55;5.30;;;1.95;;
49610;SDS011;35515;48.766;9.176;2022-12-24T01:16:23;5.72;;;2.13;;
49610;SDS011;35515;48.766;9.176;2022-12-24T01:18:50;6.20;;;2.50;;
49610;SDS011;35515;48.766;9.176;2022-12-24T01:21:16;4.70;;;1.83;;
49610;SDS011;35515;48.766;9.176;2022-12-24T01:23:43;6.28;;;2.22;;
49610;SDS011;35515;48.766;9.176;2022-12-24T01:26:10;4.35;;;1.70;;
49610;SDS011;35515;48.766;9.176;2022-12-24T01:28:37;8.13;;;1.90;;
49610;SDS011;35515;48.766;9.176;2022-12-24T01:31:08;5.05;;;1.63;;
49610;SDS011;35515;48.766;9.176;2022-12-24T01:33:37;6.53;;;1.65;;
49610;SDS011;35515;48.766;9.176;2022-12-24T01:36:03;4.95;;;1.83;;
49610;SDS011;35515;48.766;9.176;2022-12-24T01:38:30;4.25;;;2.22;;
49610;SDS011;35515;48.766;9.176;2022-12-24T01:40:57;7.80;;;2.17;;
49610;SDS011;35515;48.766;9.176;2022-12-24T01:43:40;6.90;;;2.72;;
49610;SDS011;35515;48.766;9.176;2022-12-24T01:46:07;6.43;;;2.03;;
49610;SDS011;35515;48.766;9.176;2022-12-24T01:48:43;6.07;;;1.90;;
49610;SDS011;35515;48.766;9.176;2022-12-24T01:51:14;7.30;;;2.22;;
49610;SDS011;35515;48.766;9.176;2022-12-24T01:53:48;5.93;;;2.50;;
49610;SDS011;35515;48.766;9.176;2022-12-24T01:56:17;5.15;;;2.20;;
49610;SDS011;35515;48.766;9.176;2022-12-24T01:58:46;7.45;;;2.63;;
49610;SDS011;35515;48.766;9.176;2022-12-24T02:01:17;9.98;;;2.58;;
49610;SDS011;35515;48.766;9.176;2022-12-24T02:03:45;9.63;;;2.10;;
49610;SDS011;35515;48.766;9.176;2022-12-24T02:06:12;8.27;;;2.55;;
49610;SDS011;35515;48.766;9.176;2022-12-24T02:08:42;7.47;;;2.70;;
49610;SDS011;35515;48.766;9.176;2022-12-24T02:11:10;10.38;;;2.95;;
49610;SDS011;35515;48.766;9.176;2022-12-24T02:13:37;13.35;;;2.75;;
49610;SDS011;35515;48.766;9.176;2022-12-24T02:16:07;9.80;;;2.42;;
49610;SDS011;35515;48.766;9.176;2022-12-24T02:18:43;7.80;;;2.55;;
49610;SDS011;35515;48.766;9.176;2022-12-24T02:21:36;10.55;;;2.78;;
49610;SDS011;35515;48.766;9.176;2022-12-24T02:24:38;6.13;;;2.30;;
49610;SDS011;35515;48.766;9.176;2022-12-24T02:27:30;7.15;;;2.40;;
49610;SDS011;35515;48.766;9.176;2022-12-24T02:30:05;6.85;;;2.55;;
49610;SDS011;35515;48.766;9.176;2022-12-24T02:32:39;7.88;;;2.10;;
49610;SDS011;35515;48.766;9.176;2022-12-24T02:35:14;4.07;;;2.10;;
49610;SDS011;35515;48.766;9.176;2022-12-24T02:37:47;9.70;;;3.15;;
49610;SDS011;35515;48.766;9.176;2022-12-24T02:40:19;7.63;;;2.40;;
49610;SDS011;35515;48.766;9.176;2022-12-24T02:42:50;9.88;;;2.40;;
49610;SDS011;35515;48.766;9.176;2022-12-24T02:47:53;6.88;;;2.17;;
49610;SDS011;35515;48.766;9.176;2022-12-24T02:50:21;7.40;;;2.33;;
49610;SDS011;35515;48.766;9.176;2022-12-24T02:52:49;7.97;;;3.05;;
49610;SDS011;35515;48.766;9.176;2022-12-24T02:55:17;6.90;;;2.25;;
49610;SDS011;35515;48.766;9.176;2022-12-24T02:57:57;5.65;;;2.20;;
49610;SDS011;35515;48.766;9.176;2022-12-24T03:00:35;9.15;;;2.50;;
49610;SDS011;35515;48.766;9.176;2022-12-24T03:03:14;9.05;;;2.10;;
49610;SDS011;35515;48.766;9.176;2022-12-24T03:05:56;8.02;;;2.72;;
49610;SDS011;35515;48.766;9.176;2022-12-24T03:08:30;6.60;;;2.40;;
49610;SDS011;35515;48.766;9.176;2022-12-24T03:11:04;6.07;;;3.08;;
49610;SDS011;35515;48.766;9.176;2022-12-24T03:13:34;6.30;;;2.47;;
49610;SDS011;35515;48.766;9.176;2022-12-24T03:16:03;5.65;;;2.35;;
49610;SDS011;35515;48.766;9.176;2022-12-24T03:18:32;7.38;;;2.70;;
49610;SDS011;35515;48.766;9.176;2022-12-24T03:20:59;11.43;;;3.03;;
49610;SDS011;35515;48.766;9.176;2022-12-24T03:23:28;8.02;;;2.67;;
49610;SDS011;35515;48.766;9.176;2022-12-24T03:25:55;8.52;;;2.15;;
49610;SDS011;35515;48.766;9.176;2022-12-24T03:28:25;7.43;;;2.40;;
49610;SDS011;35515;48.766;9.176;2022-12-24T03:30:53;9.35;;;2.10;;
49610;SDS011;35515;48.766;9.176;2022-12-24T03:33:21;5.97;;;2.00;;
49610;SDS011;35515;48.766;9.176;2022-12-24T03:35:47;4.80;;;2.38;;
49610;SDS011;35515;48.766;9.176;2022-12-24T03:38:14;6.15;;;2.20;;
49610;SDS011;35515;48.766;9.176;2022-12-24T03:40:40;7.45;;;2.30;;
49610;SDS011;35515;48.766;9.176;2022-12-24T03:43:07;7.93;;;2.88;;
49610;SDS011;35515;48.766;9.176;2022-12-24T03:45:33;10.35;;;2.50;;
49610;SDS011;35515;48.766;9.176;2022-12-24T03:48:00;9.18;;;2.25;;
49610;SDS011;35515;48.766;9.176;2022-12-24T03:50:28;4.68;;;2.17;;
49610;SDS011;35515;48.766;9.176;2022-12-24T03:52:54;9.95;;;2.75;;
49610;SDS011;35515;48.766;9.176;2022-12-24T03:55:21;6.28;;;2.72;;
49610;SDS011;35515;48.766;9.176;2022-12-24T03:57:48;8.10;;;2.40;;
49610;SDS011;35515;48.766;9.176;2022-12-24T04:00:15;7.55;;;2.30;;
49610;SDS011;35515;48.766;9.176;2022-12-24T04:02:42;9.48;;;2.55;;
49610;SDS011;35515;48.766;9.176;2022-12-24T04:05:10;9.75;;;2.60;;
49610;SDS011;35515;48.766;9.176;2022-12-24T04:07:40;6.53;;;2.50;;
49610;SDS011;35515;48.766;9.176;2022-12-24T04:10:07;5.20;;;2.55;;
49610;SDS011;35515;48.766;9.176;2022-12-24T04:12:34;9.32;;;3.50;;
49610;SDS011;35515;48.766;9.176;2022-12-24T04:15:01;9.38;;;2.53;;
49610;SDS011;35515;48.766;9.176;2022-12-24T04:17:28;10.10;;;2.83;;
49610;SDS011;35515;48.766;9.176;2022-12-24T04:19:54;9.02;;;2.20;;
49610;SDS011;35515;48.766;9.176;2022-12-24T04:22:21;5.93;;;2.67;;
49610;SDS011;35515;48.766;9.176;2022-12-24T04:24:49;8.00;;;2.85;;
49610;SDS011;35515;48.766;9.176;2022-12-24T04:27:15;6.20;;;2.28;;
49610;SDS011;35515;48.766;9.176;2022-12-24T04:29:42;6.25;;;2.30;;
49610;SDS011;35515;48.766;9.176;2022-12-24T04:32:09;13.38;;;3.08;;
49610;SDS011;35515;48.766;9.176;2022-12-24T04:34:35;9.75;;;2.60;;
49610;SDS011;35515;48.766;9.176;2022-12-24T04:37:02;11.75;;;2.70;;
49610;SDS011;35515;48.766;9.176;2022-12-24T04:39:29;7.60;;;2.65;;
49610;SDS011;35515;48.766;9.176;2022-12-24T04:41:56;9.48;;;2.60;;
49610;SDS011;35515;48.766;9.176;2022-12-24T04:44:23;4.63;;;2.45;;
49610;SDS011;35515;48.766;9.176;2022-12-24T04:46:50;11.35;;;3.42;;
49610;SDS011;35515;48.766;9.176;2022-12-24T04:49:16;8.38;;;2.85;;
49610;SDS011;35515;48.766;9.176;2022-12-24T04:51:43;5.60;;;2.50;;
49610;SDS011;35515;48.766;9.176;2022-12-24T04:54:09;9.10;;;2.95;;
49610;SDS011;35515;48.766;9.176;2022-12-24T04:56:35;9.68;;;2.90;;
49610;SDS011;35515;48.766;9.176;2022-12-24T04:59:03;12.38;;;3.58;;
49610;SDS011;35515;48.766;9.176;2022-12-24T05:01:31;8.23;;;2.70;;
49610;SDS011;35515;48.766;9.176;2022-12-24T05:03:58;10.82;;;2.85;;
49610;SDS011;35515;48.766;9.176;2022-12-24T05:06:25;7.07;;;2.97;;
49610;SDS011;35515;48.766;9.176;2022-12-24T05:08:54;7.47;;;2.42;;
49610;SDS011;35515;48.766;9.176;2022-12-24T05:11:22;10.48;;;2.83;;
49610;SDS011;35515;48.766;9.176;2022-12-24T05:13:48;11.20;;;2.83;;
49610;SDS011;35515;48.766;9.176;2022-12-24T05:16:17;11.65;;;3.00;;
49610;SDS011;35515;48.766;9.176;2022-12-24T05:18:45;14.10;;;2.75;;
49610;SDS011;35515;48.766;9.176;2022-12-24T05:21:12;6.10;;;2.72;;
49610;SDS011;35515;48.766;9.176;2022-12-24T05:23:40;9.23;;;2.65;;
49610;SDS011;35515;48.766;9.176;2022-12-24T05:26:26;7.47;;;2.60;;
49610;SDS011;35515;48.766;9.176;2022-12-24T05:28:55;11.85;;;2.88;;
49610;SDS011;35515;48.766;9.176;2022-12-24T05:31:25;6.82;;;3.42;;
49610;SDS011;35515;48.766;9.176;2022-12-24T05:33:52;8.13;;;2.55;;
49610;SDS011;35515;48.766;9.176;2022-12-24T05:36:20;9.85;;;2.78;;
49610;SDS011;35515;48.766;9.176;2022-12-24T05:38:48;7.20;;;2.78;;
49610;SDS011;35515;48.766;9.176;2022-12-24T05:41:15;10.68;;;3.38;;
49610;SDS011;35515;48.766;9.176;2022-12-24T05:43:41;8.48;;;2.90;;
49610;SDS011;35515;48.766;9.176;2022-12-24T05:46:08;9.90;;;2.72;;
49610;SDS011;35515;48.766;9.176;2022-12-24T05:48:38;8.73;;;2.47;;
49610;SDS011;35515;48.766;9.176;2022-12-24T05:51:05;10.70;;;2.92;;
49610;SDS011;35515;48.766;9.176;2022-12-24T05:53:33;12.25;;;2.70;;
49610;SDS011;35515;48.766;9.176;2022-12-24T05:56:03;8.90;;;2.72;;
49610;SDS011;35515;48.766;9.176;2022-12-24T05:58:31;8.07;;;2.20;;
49610;SDS011;35515;48.766;9.176;2022-12-24T06:00:59;12.10;;;3.20;;
49610;SDS011;35515;48.766;9.176;2022-12-24T06:03:26;10.40;;;3.10;;
49610;SDS011;35515;48.766;9.176;2022-12-24T06:05:58;11.70;;;2.70;;
49610;SDS011;35515;48.766;9.176;2022-12-24T06:08:25;4.38;;;2.05;;
49610;SDS011;35515;48.766;9.176;2022-12-24T06:10:53;8.38;;;3.08;;
49610;SDS011;35515;48.766;9.176;2022-12-24T06:13:20;6.03;;;2.67;;
49610;SDS011;35515;48.766;9.176;2022-12-24T06:15:47;7.78;;;2.55;;
49610;SDS011;35515;48.766;9.176;2022-12-24T06:18:13;11.90;;;2.80;;
49610;SDS011;35515;48.766;9.176;2022-12-24T06:20:40;9.82;;;3.42;;
49610;SDS011;35515;48.766;9.176;2022-12-24T06:23:08;9.15;;;3.20;;
49610;SDS011;35515;48.766;9.176;2022-12-24T06:25:34;11.13;;;2.75;;
49610;SDS011;35515;48.766;9.176;2022-12-24T06:28:01;11.55;;;2.90;;
49610;SDS011;35515;48.766;9.176;2022-12-24T06:30:27;8.45;;;2.60;;
49610;SDS011;35515;48.766;9.176;2022-12-24T06:32:54;8.57;;;2.97;;
49610;SDS011;35515;48.766;9.176;2022-12-24T06:35:20;7.20;;;2.53;;
49610;SDS011;35515;48.766;9.176;2022-12-24T06:37:47;11.15;;;3.20;;
49610;SDS011;35515;48.766;9.176;2022-12-24T06:40:15;11.80;;;2.85;;
49610;SDS011;35515;48.766;9.176;2022-12-24T06:42:41;7.82;;;2.55;;
49610;SDS011;35515;48.766;9.176;2022-12-24T06:45:08;7.60;;;2.70;;
49610;SDS011;35515;48.766;9.176;2022-12-24T06:47:35;12.35;;;3.08;;
49610;SDS011;35515;48.766;9.176;2022-12-24T06:50:02;7.63;;;3.28;;
49610;SDS011;35515;48.766;9.176;2022-12-24T06:52:29;7.63;;;2.95;;
49610;SDS011;35515;48.766;9.176;2022-12-24T06:54:55;7.47;;;2.72;;
49610;SDS011;35515;48.766;9.176;2022-12-24T06:57:23;8.85;;;2.95;;
49610;SDS011;35515;48.766;9.176;2022-12-24T06:59:50;10.57;;;3.53;;
49610;SDS011;35515;48.766;9.176;2022-12-24T07:02:16;14.05;;;3.72;;
49610;SDS011;35515;48.766;9.176;2022-12-24T07:04:43;7.35;;;2.97;;
49610;SDS011;35515;48.766;9.176;2022-12-24T07:07:09;9.65;;;3.47;;
49610;SDS011;35515;48.766;9.176;2022-12-24T07:09:36;29.95;;;16.25;;
49610;SDS011;35515;48.766;9.176;2022-12-24T07:12:02;20.10;;;10.77;;
49610;SDS011;35515;48.766;9.176;2022-12-24T07:14:31;10.30;;;4.05;;
49610;SDS011;35515;48.766;9.176;2022-12-24T07:16:57;6.32;;;3.55;;
49610;SDS011;35515;48.766;9.176;2022-12-24T07:19:24;11.60;;;3.15;;
49610;SDS011;35515;48.766;9.176;2022-12-24T07:21:51;7.45;;;3.00;;
49610;SDS011;35515;48.766;9.176;2022-12-24T07:24:17;7.10;;;2.70;;
49610;SDS011;35515;48.766;9.176;2022-12-24T07:26:44;10.40;;;3.05;;
49610;SDS011;35515;48.766;9.176;2022-12-24T07:29:10;8.85;;;2.60;;
49610;SDS011;35515;48.766;9.176;2022-12-24T07:31:38;8.15;;;3.50;;
49610;SDS011;35515;48.766;9.176;2022-12-24T07:34:05;9.65;;;3.03;;
49610;SDS011;35515;48.766;9.176;2022-12-24T07:36:31;11.18;;;3.70;;
49610;SDS011;35515;48.766;9.176;2022-12-24T07:38:58;8.93;;;3.35;;
49610;SDS011;35515;48.766;9.176;2022-12-24T07:41:24;12.82;;;4.57;;
49610;SDS011;35515;48.766;9.176;2022-12-24T07:43:51;6.95;;;2.97;;
49610;SDS011;35515;48.766;9.176;2022-12-24T07:46:17;7.45;;;3.15;;
49610;SDS011;35515;48.766;9.176;2022-12-24T07:48:45;5.40;;;3.10;;
49610;SDS011;35515;48.766;9.176;2022-12-24T07:51:12;10.45;;;3.13;;
49610;SDS011;35515;48.766;9.176;2022-12-24T07:53:38;9.15;;;2.78;;
49610;SDS011;35515;48.766;9.176;2022-12-24T07:56:11;10.70;;;3.83;;
49610;SDS011;35515;48.766;9.176;2022-12-24T07:58:37;15.02;;;3.40;;
49610;SDS011;35515;48.766;9.176;2022-12-24T08:01:04;12.95;;;4.32;;
49610;SDS011;35515;48.766;9.176;2022-12-24T08:03:31;5.72;;;3.35;;
49610;SDS011;35515;48.766;9.176;2022-12-24T08:05:58;7.72;;;3.78;;
49610;SDS011;35515;48.766;9.176;2022-12-24T08:08:25;13.23;;;3.15;;
49610;SDS011;35515;48.766;9.176;2022-12-24T08:10:52;7.78;;;3.50;;
49610;SDS011;35515;48.766;9.176;2022-12-24T08:13:18;14.25;;;3.53;;
49610;SDS011;35515;48.766;9.176;2022-12-24T08:15:45;8.02;;;3.47;;
49610;SDS011;35515;48.766;9.176;2022-12-24T08:18:11;9.10;;;3.53;;
49610;SDS011;35515;48.766;9.176;2022-12-24T08:20:38;11.27;;;3.88;;
49610;SDS011;35515;48.766;9.176;2022-12-24T08:23:07;6.38;;;3.10;;
49610;SDS011;35515;48.766;9.176;2022-12-24T08:25:34;8.40;;;2.92;;
49610;SDS011;35515;48.766;9.176;2022-12-24T08:28:01;8.80;;;3.08;;
49610;SDS011;35515;48.766;9.176;2022-12-24T08:30:28;8.25;;;2.90;;
49610;SDS011;35515;48.766;9.176;2022-12-24T08:32:55;10.30;;;3.20;;
49610;SDS011;35515;48.766;9.176;2022-12-24T08:35:21;10.15;;;2.72;;
49610;SDS011;35515;48.766;9.176;2022-12-24T08:37:48;7.30;;;2.25;;
49610;SDS011;35515;48.766;9.176;2022-12-24T08:40:16;9.88;;;2.58;;
49610;SDS011;35515;48.766;9.176;2022-12-24T08:42:42;8.38;;;3.08;;
49610;SDS011;35515;48.766;9.176;2022-12-24T08:45:09;7.82;;;2.60;;
49610;SDS011;35515;48.766;9.176;2022-12-24T08:47:36;9.63;;;3.63;;
49610;SDS011;35515;48.766;9.176;2022-12-24T08:50:03;5.80;;;2.33;;
49610;SDS011;35515;48.766;9.176;2022-12-24T08:52:31;8.07;;;2.38;;
49610;SDS011;35515;48.766;9.176;2022-12-24T08:54:58;10.07;;;2.88;;
49610;SDS011;35515;48.766;9.176;2022-12-24T08:57:26;10.60;;;2.53;;
49610;SDS011;35515;48.766;9.176;2022-12-24T08:59:52;12.00;;;3.08;;
49610;SDS011;35515;48.766;9.176;2022-12-24T09:02:19;8.68;;;2.95;;
49610;SDS011;35515;48.766;9.176;2022-12-24T09:04:46;11.27;;;3.72;;
49610;SDS011;35515;48.766;9.176;2022-12-24T09:07:12;9.25;;;2.80;;
49610;SDS011;35515;48.766;9.176;2022-12-24T09:09:39;9.20;;;3.10;;
49610;SDS011;35515;48.766;9.176;2022-12-24T09:12:05;9.50;;;3.22;;
49610;SDS011;35515;48.766;9.176;2022-12-24T09:14:35;9.48;;;2.90;;
49610;SDS011;35515;48.766;9.176;2022-12-24T09:17:02;10.70;;;3.63;;
49610;SDS011;35515;48.766;9.176;2022-12-24T09:19:28;9.15;;;2.95;;
49610;SDS011;35515;48.766;9.176;2022-12-24T09:21:55;13.98;;;3.78;;
49610;SDS011;35515;48.766;9.176;2022-12-24T09:24:21;7.38;;;3.17;;
49610;SDS011;35515;48.766;9.176;2022-12-24T09:26:48;9.68;;;2.90;;
49610;SDS011;35515;48.766;9.176;2022-12-24T09:29:14;9.13;;;3.30;;
49610;SDS011;35515;48.766;9.176;2022-12-24T09:31:42;8.65;;;2.90;;
49610;SDS011;35515;48.766;9.176;2022-12-24T09:34:09;5.45;;;2.45;;
49610;SDS011;35515;48.766;9.176;2022-12-24T09:36:35;10.65;;;3.10;;
49610;SDS011;35515;48.766;9.176;2022-12-24T09:39:02;11.90;;;2.95;;
49610;SDS011;35515;48.766;9.176;2022-12-24T09:41:31;8.75;;;2.88;;
49610;SDS011;35515;48.766;9.176;2022-12-24T09:44:13;8.93;;;3.25;;
49610;SDS011;35515;48.766;9.176;2022-12-24T09:46:50;8.45;;;3.00;;
49610;SDS011;35515;48.766;9.176;2022-12-24T09:49:19;13.32;;;3.10;;
49610;SDS011;35515;48.766;9.176;2022-12-24T09:51:51;19.70;;;3.78;;
49610;SDS011;35515;48.766;9.176;2022-12-24T09:54:23;9.63;;;3.28;;
49610;SDS011;35515;48.766;9.176;2022-12-24T09:56:52;8.23;;;3.00;;
49610;SDS011;35515;48.766;9.176;2022-12-24T09:59:23;7.85;;;2.65;;
49610;SDS011;35515;48.766;9.176;2022-12-24T10:01:53;11.80;;;3.10;;
49610;SDS011;35515;48.766;9.176;2022-12-24T10:04:21;12.15;;;3.33;;
49610;SDS011;35515;48.766;9.176;2022-12-24T10:06:52;10.75;;;2.97;;
49610;SDS011;35515;48.766;9.176;2022-12-24T10:09:27;10.77;;;3.10;;
49610;SDS011;35515;48.766;9.176;2022-12-24T10:12:05;7.93;;;3.13;;
49610;SDS011;35515;48.766;9.176;2022-12-24T10:14:44;12.30;;;2.85;;
49610;SDS011;35515;48.766;9.176;2022-12-24T10:17:29;9.65;;;3.47;;
49610;SDS011;35515;48.766;9.176;2022-12-24T10:20:15;6.78;;;2.85;;
49610;SDS011;35515;48.766;9.176;2022-12-24T10:22:55;14.98;;;3.83;;
49610;SDS011;35515;48.766;9.176;2022-12-24T10:25:29;12.32;;;3.08;;
49610;SDS011;35515;48.766;9.176;2022-12-24T10:28:01;10.40;;;3.08;;
49610;SDS011;35515;48.766;9.176;2022-12-24T10:30:38;9.38;;;3.05;;
49610;SDS011;35515;48.766;9.176;2022-12-24T10:33:08;9.68;;;3.13;;
49610;SDS011;35515;48.766;9.176;2022-12-24T10:35:42;11.05;;;3.25;;
49610;SDS011;35515;48.766;9.176;2022-12-24T10:38:12;8.18;;;2.83;;
49610;SDS011;35515;48.766;9.176;2022-12-24T10:40:39;9.15;;;2.63;;
49610;SDS011;35515;48.766;9.176;2022-12-24T10:43:10;7.57;;;3.30;;
49610;SDS011;35515;48.766;9.176;2022-12-24T10:45:41;11.20;;;3.97;;
49610;SDS011;35515;48.766;9.176;2022-12-24T10:48:13;26.98;;;11.55;;
49610;SDS011;35515;48.766;9.176;2022-12-24T10:50:48;10.95;;;4.65;;
49610;SDS011;35515;48.766;9.176;2022-12-24T10:53:20;10.02;;;3.30;;
49610;SDS011;35515;48.766;9.176;2022-12-24T10:55:50;8.88;;;3.38;;
49610;SDS011;35515;48.766;9.176;2022-12-24T10:58:26;10.48;;;3.35;;
49610;SDS011;35515;48.766;9.176;2022-12-24T11:00:52;9.93;;;3.15;;
49610;SDS011;35515;48.766;9.176;2022-12-24T11:03:27;15.30;;;3.22;;
49610;SDS011;35515;48.766;9.176;2022-12-24T11:05:59;7.60;;;3.13;;
49610;SDS011;35515;48.766;9.176;2022-12-24T11:08:27;12.45;;;4.13;;
49610;SDS011;35515;48.766;9.176;2022-12-24T11:10:55;15.05;;;4.85;;
49610;SDS011;35515;48.766;9.176;2022-12-24T11:13:23;12.18;;;3.10;;
49610;SDS011;35515;48.766;9.176;2022-12-24T11:15:58;12.85;;;3.25;;
49610;SDS011;35515;48.766;9.176;2022-12-24T11:18:28;10.18;;;3.15;;
49610;SDS011;35515;48.766;9.176;2022-12-24T11:20:56;10.02;;;3.08;;
49610;SDS011;35515;48.766;9.176;2022-12-24T11:23:25;8.93;;;2.50;;
49610;SDS011;35515;48.766;9.176;2022-12-24T11:25:55;7.40;;;3.20;;
49610;SDS011;35515;48.766;9.176;2022-12-24T11:28:24;10.10;;;3.78;;
49610;SDS011;35515;48.766;9.176;2022-12-24T11:30:59;10.02;;;3.58;;
49610;SDS011;35515;48.766;9.176;2022-12-24T11:33:29;8.32;;;3.42;;
49610;SDS011;35515;48.766;9.176;2022-12-24T11:35:59;11.68;;;3.13;;
49610;SDS011;35515;48.766;9.176;2022-12-24T11:38:29;8.93;;;3.47;;
49610;SDS011;35515;48.766;9.176;2022-12-24T11:40:58;11.32;;;3.60;;
49610;SDS011;35515;48.766;9.176;2022-12-24T11:43:26;11.07;;;4.07;;
49610;SDS011;35515;48.766;9.176;2022-12-24T11:46:15;11.15;;;3.88;;
49610;SDS011;35515;48.766;9.176;2022-12-24T11:48:48;8.18;;;3.33;;
49610;SDS011;35515;48.766;9.176;2022-12-24T11:51:31;11.73;;;3.33;;
49610;SDS011;35515;48.766;9.176;2022-12-24T11:53:59;10.27;;;3.03;;
49610;SDS011;35515;48.766;9.176;2022-12-24T11:56:35;12.95;;;3.30;;
49610;SDS011;35515;48.766;9.176;2022-12-24T11:59:08;9.18;;;3.35;;
49610;SDS011;35515;48.766;9.176;2022-12-24T12:01:43;13.32;;;3.83;;
49610;SDS011;35515;48.766;9.176;2022-12-24T12:04:21;14.85;;;4.68;;
49610;SDS011;35515;48.766;9.176;2022-12-24T12:06:51;13.65;;;4.43;;
49610;SDS011;35515;48.766;9.176;2022-12-24T12:09:21;15.07;;;3.93;;
49610;SDS011;35515;48.766;9.176;2022-12-24T12:11:52;11.63;;;3.92;;
49610;SDS011;35515;48.766;9.176;2022-12-24T12:14:27;11.80;;;3.10;;
49610;SDS011;35515;48.766;9.176;2022-12-24T12:16:59;11.82;;;2.75;;
49610;SDS011;35515;48.766;9.176;2022-12-24T12:19:34;12.57;;;3.42;;
49610;SDS011;35515;48.766;9.176;2022-12-24T12:22:10;9.57;;;3.17;;
49610;SDS011;35515;48.766;9.176;2022-12-24T12:24:46;7.80;;;3.50;;
49610;SDS011;35515;48.766;9.176;2022-12-24T12:29:51;12.05;;;3.80;;
49610;SDS011;35515;48.766;9.176;2022-12-24T12:32:24;9.77;;;3.08;;
49610;SDS011;35515;48.766;9.176;2022-12-24T12:35:03;11.65;;;3.90;;
49610;SDS011;35515;48.766;9.176;2022-12-24T12:37:40;9.00;;;3.20;;
49610;SDS011;35515;48.766;9.176;2022-12-24T12:40:12;10.60;;;3.83;;
49610;SDS011;35515;48.766;9.176;2022-12-24T12:42:40;8.45;;;2.72;;
49610;SDS011;35515;48.766;9.176;2022-12-24T12:45:21;8.70;;;3.33;;
49610;SDS011;35515;48.766;9.176;2022-12-24T12:48:09;14.15;;;3.67;;
49610;SDS011;35515;48.766;9.176;2022-12-24T12:50:48;10.90;;;3.38;;
49610;SDS011;35515;48.766;9.176;2022-12-24T12:53:23;10.10;;;3.50;;
49610;SDS011;35515;48.766;9.176;2022-12-24T12:56:05;11.95;;;3.63;;
49610;SDS011;35515;48.766;9.176;2022-12-24T12:58:40;11.57;;;3.42;;
49610;SDS011;35515;48.766;9.176;2022-12-24T13:01:13;8.20;;;3.35;;
49610;SDS011;35515;48.766;9.176;2022-12-24T13:09:40;10.63;;;2.95;;
49610;SDS011;35515;48.766;9.176;2022-12-24T13:15:28;10.88;;;3.20;;
49610;SDS011;35515;48.766;9.176;2022-12-24T13:18:13;7.18;;;2.95;;
49610;SDS011;35515;48.766;9.176;2022-12-24T13:20:49;13.55;;;3.25;;
49610;SDS011;35515;48.766;9.176;2022-12-24T13:23:19;11.50;;;2.83;;
49610;SDS011;35515;48.766;9.176;2022-12-24T13:25:48;9.88;;;4.18;;
49610;SDS011;35515;48.766;9.176;2022-12-24T13:28:17;13.93;;;3.55;;
49610;SDS011;35515;48.766;9.176;2022-12-24T13:31:21;13.05;;;3.15;;
49610;SDS011;35515;48.766;9.176;2022-12-24T13:33:52;11.80;;;4.20;;
49610;SDS011;35515;48.766;9.176;2022-12-24T13:36:20;23.02;;;4.45;;
49610;SDS011;35515;48.766;9.176;2022-12-24T13:38:48;12.95;;;5.40;;
49610;SDS011;35515;48.766;9.176;2022-12-24T13:44:22;10.93;;;3.13;;
49610;SDS011;35515;48.766;9.176;2022-12-24T13:46:54;10.65;;;3.70;;
49610;SDS011;35515;48.766;9.176;2022-12-24T13:49:33;9.52;;;3.63;;
49610;SDS011;35515;48.766;9.176;2022-12-24T13:52:13;11.10;;;3.10;;
49610;SDS011;35515;48.766;9.176;2022-12-24T13:54:46;8.05;;;3.45;;
49610;SDS011;35515;48.766;9.176;2022-12-24T14:00:22;7.30;;;3.47;;
49610;SDS011;35515;48.766;9.176;2022-12-24T14:02:55;12.85;;;3.47;;
49610;SDS011;35515;48.766;9.176;2022-12-24T14:05:24;12.30;;;3.92;;
49610;SDS011;35515;48.766;9.176;2022-12-24T14:07:56;12.38;;;3.85;;
49610;SDS011;35515;48.766;9.176;2022-12-24T14:10:25;10.82;;;3.90;;
49610;SDS011;35515;48.766;9.176;2022-12-24T14:12:56;13.18;;;3.88;;
49610;SDS011;35515;48.766;9.176;2022-12-24T14:18:26;10.77;;;3.92;;
49610;SDS011;35515;48.766;9.176;2022-12-24T14:20:55;12.85;;;3.35;;
49610;SDS011;35515;48.766;9.176;2022-12-24T14:23:27;10.00;;;4.05;;
49610;SDS011;35515;48.766;9.176;2022-12-24T14:26:00;11.25;;;3.63;;
49610;SDS011;35515;48.766;9.176;2022-12-24T14:28:30;14.27;;;4.60;;
49610;SDS011;35515;48.766;9.176;2022-12-24T14:31:01;17.48;;;5.95;;
49610;SDS011;35515;48.766;9.176;2022-12-24T14:33:28;13.18;;;6.78;;
49610;SDS011;35515;48.766;9.176;2022-12-24T14:35:55;13.88;;;4.70;;
49610;SDS011;35515;48.766;9.176;2022-12-24T14:38:22;16.00;;;5.55;;
49610;SDS011;35515;48.766;9.176;2022-12-24T14:40:49;9.38;;;4.35;;
49610;SDS011;35515;48.766;9.176;2022-12-24T14:43:24;18.83;;;5.05;;
49610;SDS011;35515;48.766;9.176;2022-12-24T14:46:03;12.35;;;4.20;;
49610;SDS011;35515;48.766;9.176;2022-12-24T14:48:38;12.82;;;5.03;;
49610;SDS011;35515;48.766;9.176;2022-12-24T14:51:16;13.70;;;5.15;;
49610;SDS011;35515;48.766;9.176;2022-12-24T14:53:52;15.30;;;5.20;;
49610;SDS011;35515;48.766;9.176;2022-12-24T14:56:31;16.30;;;4.90;;
49610;SDS011;35515;48.766;9.176;2022-12-24T14:58:58;13.45;;;5.47;;
49610;SDS011;35515;48.766;9.176;2022-12-24T15:03:58;17.48;;;6.07;;
49610;SDS011;35515;48.766;9.176;2022-12-24T15:06:26;17.45;;;5.25;;
49610;SDS011;35515;48.766;9.176;2022-12-24T15:08:54;16.10;;;5.30;;
49610;SDS011;35515;48.766;9.176;2022-12-24T15:11:21;12.57;;;4.82;;
49610;SDS011;35515;48.766;9.176;2022-12-24T15:13:49;11.48;;;5.50;;
49610;SDS011;35515;48.766;9.176;2022-12-24T15:16:20;17.65;;;5.00;;
49610;SDS011;35515;48.766;9.176;2022-12-24T15:18:50;14.45;;;5.45;;
49610;SDS011;35515;48.766;9.176;2022-12-24T15:21:19;13.40;;;4.90;;
49610;SDS011;35515;48.766;9.176;2022-12-24T15:23:51;12.95;;;4.55;;